Terminal Aerodrome Forecast
Issued by NWS Norman, OK

Home | Current Version | Previous Version | Text Only | Print | Product List | Glossary On
Versions: 1 2 3 4 5 6 7 8 9 10 11 12 13 14 15 16 17 18 19 20 21
000
FTUS44 KOUN 290520
TAFSPS
TAF
KSPS 290520Z 2906/3006 14012KT P6SM FEW030 BKN070
     FM291900 13012G17KT P6SM BKN120 PROB30 2920/3001 6SM -TSRA BR
      OVC030CB
     FM300100 18013KT P6SM BKN030=

USA.gov is the U.S. government's official web portal to all federal, state and local government web resources and services.